KBCE/BCE METAR and TAF weather

Enter ICAO airport designator
Station Type Date Time Source
KBCE METAR 2018/04/19 12:53 UTC NOAA

KBCE 191253Z AUTO 14006KT 10SM CLR M01/M17 A2997 RMK AO2 SLP092 T10061172


Station Type Date Time Source
KBCE Decoded METAR 2018/04/19 12:53 UTC NOAA

BRYCE CANYON AIRPORT, UT, United States (KBCE) 37-42N 112-09W 2312M
Apr 19, 2018 - 08:53 AM EDT / 2018.04.19 1253 UTC
Wind: from the SE (140 degrees) at 7 MPH (6 KT):0
Visibility: 10 mile(s):0
Sky conditions: clear
Temperature: 30.9 F (-0.6 C)
Windchill: 24 F (-4 C):1
Dew Point: 1.0 F (-17.2 C)
Relative Humidity: 27%
Pressure (altimeter): 29.97 in. Hg (1014 hPa)
ob: KBCE 191253Z AUTO 14006KT 10SM CLR M01/M17 A2997 RMK AO2 SLP092 T10061172
cycle: 13

Station Type Date Time Source
KBCE TAF 2018/04/19 12:22 UTC NOAA

TAF KBCE 191120Z 1912/2012 16010KT P6SM BKN150
FM191700 18018G28KT P6SM SCT070 BKN120
FM200000 22012G18KT P6SM VCSH SCT030 BKN060


Example: see airport list